createdAt,value
2018-03-07T00:01:07.432Z,79.70
2018-03-07T00:03:33.886Z,77.57
2018-03-07T00:06:00.084Z,88.40
2018-03-07T00:08:26.392Z,76.90
2018-03-07T00:10:52.624Z,78.07
2018-03-07T00:13:19.649Z,85.13
2018-03-07T00:15:45.865Z,84.67
2018-03-07T00:18:12.088Z,77.80
2018-03-07T00:20:38.284Z,92.73
2018-03-07T00:23:04.511Z,90.97
2018-03-07T00:25:30.720Z,73.47
2018-03-07T00:27:57.726Z,86.87
2018-03-07T00:30:23.904Z,77.67
2018-03-07T00:32:50.845Z,96.57
2018-03-07T00:35:17.917Z,70.00
2018-03-07T00:37:44.126Z,76.57
2018-03-07T00:40:10.415Z,91.30
2018-03-07T00:42:36.636Z,86.87
2018-03-07T00:45:02.894Z,81.17
2018-03-07T00:47:29.871Z,70.33
2018-03-07T00:49:56.083Z,84.03
2018-03-07T00:52:23.101Z,81.00
2018-03-07T00:54:49.408Z,98.60
2018-03-07T00:57:15.761Z,74.23
2018-03-07T00:59:41.945Z,78.67
2018-03-07T01:02:08.232Z,86.73
2018-03-07T01:04:35.158Z,89.23
2018-03-07T01:07:02.201Z,99.00
2018-03-07T01:09:28.397Z,90.37
2018-03-07T01:11:54.589Z,88.40
2018-03-07T01:14:20.781Z,91.37
2018-03-07T01:16:47.063Z,89.90
2018-03-07T01:19:14.013Z,82.97
2018-03-07T01:21:40.278Z,83.93
2018-03-07T01:24:06.465Z,81.40
2018-03-07T01:26:32.653Z,88.40
2018-03-07T01:28:58.924Z,88.37
2018-03-07T01:31:25.152Z,83.90
2018-03-07T01:33:51.342Z,91.93
2018-03-07T01:36:17.577Z,82.23
2018-03-07T01:38:43.845Z,84.83
2018-03-07T01:41:10.052Z,86.80
2018-03-07T01:43:36.983Z,78.20
2018-03-07T01:46:03.224Z,87.33
2018-03-07T01:48:30.171Z,78.77
2018-03-07T01:50:57.106Z,89.67
2018-03-07T01:53:23.372Z,73.43
2018-03-07T01:55:49.793Z,89.23
2018-03-07T01:58:16.810Z,79.57
2018-03-07T02:00:43.002Z,83.97
2018-03-07T02:03:09.250Z,84.13
2018-03-07T02:05:35.424Z,82.20
2018-03-07T02:08:02.361Z,70.03
2018-03-07T02:10:29.556Z,93.87
2018-03-07T02:12:55.754Z,79.67
2018-03-07T02:15:21.975Z,85.07
2018-03-07T02:17:48.970Z,81.47
2018-03-07T02:20:15.506Z,74.77
2018-03-07T02:22:41.758Z,78.00
2018-03-07T02:25:07.984Z,79.80
2018-03-07T02:27:34.173Z,85.63
2018-03-07T02:30:00.372Z,76.33
2018-03-07T02:32:26.604Z,87.63
2018-03-07T02:34:53.581Z,86.50
2018-03-07T02:37:19.771Z,71.63
2018-03-07T02:39:46.774Z,90.17
2018-03-07T02:42:12.972Z,74.73
2018-03-07T02:44:39.165Z,90.93
2018-03-07T02:47:05.429Z,76.13
2018-03-07T02:49:31.645Z,75.83
2018-03-07T02:51:57.916Z,78.67
2018-03-07T02:54:24.217Z,70.77
2018-03-07T02:56:50.414Z,89.33
2018-03-07T02:59:17.510Z,73.73
2018-03-07T03:01:43.795Z,99.33
2018-03-07T03:04:10.745Z,94.00
2018-03-07T03:06:37.717Z,91.43
2018-03-07T03:09:03.940Z,82.43
2018-03-07T03:11:30.159Z,85.00
2018-03-07T03:13:56.399Z,87.03
2018-03-07T03:16:23.433Z,84.87
2018-03-07T03:18:50.387Z,88.33
2018-03-07T03:21:17.581Z,86.10
2018-03-07T03:23:44.707Z,86.33
2018-03-07T03:26:11.244Z,73.70
2018-03-07T03:28:38.140Z,85.33
2018-03-07T03:31:04.851Z,81.33
2018-03-07T03:33:33.042Z,91.87
2018-03-07T03:35:59.296Z,81.20
2018-03-07T03:38:26.221Z,82.87
2018-03-07T03:40:52.543Z,88.37
2018-03-07T03:43:18.743Z,89.30
2018-03-07T03:45:44.996Z,92.33
2018-03-07T03:48:11.197Z,77.57
2018-03-07T03:50:38.109Z,97.03
2018-03-07T03:53:04.326Z,94.97
2018-03-07T03:55:30.519Z,87.40
2018-03-07T03:57:56.714Z,88.13
2018-03-07T04:00:23.696Z,80.87
2018-03-07T04:02:50.184Z,80.73
2018-03-07T04:05:17.129Z,81.80
2018-03-07T04:07:43.408Z,86.73
2018-03-07T04:10:09.582Z,79.47
2018-03-07T04:12:35.801Z,81.50
2018-03-07T04:15:02.214Z,88.27
2018-03-07T04:17:28.409Z,90.63
2018-03-07T04:19:54.701Z,75.80
2018-03-07T04:22:20.911Z,92.00
2018-03-07T04:24:47.096Z,87.47
2018-03-07T04:27:13.274Z,86.43
2018-03-07T04:29:39.461Z,88.90
2018-03-07T04:32:05.776Z,91.27
2018-03-07T04:34:32.726Z,100.97
2018-03-07T04:36:58.944Z,75.67
2018-03-07T04:39:25.957Z,87.20
2018-03-07T04:41:52.257Z,84.77
2018-03-07T04:44:18.514Z,86.70
2018-03-07T04:46:44.778Z,92.27
2018-03-07T04:49:11.731Z,95.83
2018-03-07T04:51:38.775Z,98.97
2018-03-07T04:54:04.988Z,83.50
2018-03-07T04:56:31.263Z,92.37
2018-03-07T04:58:57.550Z,90.17
2018-03-07T05:01:23.847Z,90.67
2018-03-07T05:03:50.249Z,82.43
2018-03-07T05:06:16.505Z,82.63
2018-03-07T05:08:42.749Z,81.63
2018-03-07T05:11:08.941Z,87.57
2018-03-07T05:13:35.157Z,86.77
2018-03-07T05:16:01.372Z,89.73
2018-03-07T05:18:28.323Z,85.73
2018-03-07T05:20:55.256Z,81.27
2018-03-07T05:23:22.234Z,83.67
2018-03-07T05:25:48.430Z,90.27
2018-03-07T05:28:15.416Z,86.87
2018-03-07T05:30:41.581Z,76.30
2018-03-07T05:33:07.780Z,78.28
2018-03-07T05:35:34.021Z,90.43
2018-03-07T05:38:00.213Z,81.80
2018-03-07T05:40:26.407Z,92.73
2018-03-07T05:42:52.616Z,82.03
2018-03-07T05:45:18.812Z,91.63
2018-03-07T05:47:45.017Z,77.93
2018-03-07T05:50:11.327Z,78.27
2018-03-07T05:52:37.511Z,86.67
2018-03-07T05:55:03.743Z,92.27
2018-03-07T05:57:29.952Z,91.00
2018-03-07T05:59:56.230Z,86.73
2018-03-07T06:02:22.450Z,89.40
2018-03-07T06:04:48.665Z,88.77
2018-03-07T06:07:14.906Z,85.87
2018-03-07T06:09:41.112Z,97.70
2018-03-07T06:12:07.417Z,105.17
2018-03-07T06:14:33.697Z,90.60
2018-03-07T06:17:00.626Z,83.47
2018-03-07T06:19:26.841Z,94.43
2018-03-07T06:21:53.112Z,91.20
2018-03-07T06:24:19.557Z,78.30
2018-03-07T06:26:46.512Z,72.90
2018-03-07T06:29:13.470Z,93.43
2018-03-07T06:31:39.701Z,78.20
2018-03-07T06:34:05.904Z,79.33
2018-03-07T06:36:33.017Z,76.73
2018-03-07T06:38:59.234Z,94.90
2018-03-07T06:41:25.464Z,99.60
2018-03-07T06:43:51.734Z,104.63
2018-03-07T06:46:18.011Z,107.20
2018-03-07T06:48:44.280Z,112.97
2018-03-07T06:51:10.482Z,114.00
2018-03-07T06:53:36.798Z,87.30
2018-03-07T06:56:02.997Z,84.93
2018-03-07T06:58:29.216Z,98.30
2018-03-07T07:00:56.325Z,86.37
2018-03-07T07:03:22.542Z,92.67
2018-03-07T07:05:48.817Z,98.57
2018-03-07T07:08:15.075Z,115.70
2018-03-07T07:10:42.052Z,135.50
2018-03-07T07:13:08.271Z,92.20
2018-03-07T07:15:34.479Z,73.57
2018-03-07T07:18:00.726Z,99.80
2018-03-07T07:20:27.119Z,101.43
2018-03-07T07:22:54.142Z,90.57
2018-03-07T07:25:20.359Z,85.90
2018-03-07T07:27:46.595Z,102.33
2018-03-07T07:30:12.795Z,93.17
2018-03-07T07:32:38.990Z,103.93
2018-03-07T07:35:05.918Z,85.33
2018-03-07T07:37:32.138Z,100.77
2018-03-07T07:39:58.301Z,106.13
2018-03-07T07:42:24.588Z,79.73
2018-03-07T07:44:50.811Z,97.23
2018-03-07T07:47:17.816Z,90.90
2018-03-07T07:49:44.777Z,107.13
2018-03-07T07:52:11.020Z,97.00
2018-03-07T07:54:37.265Z,109.67
2018-03-07T07:57:03.466Z,102.57
2018-03-07T07:59:29.665Z,113.00
2018-03-07T08:01:56.738Z,106.07
2018-03-07T08:04:22.934Z,118.70
2018-03-07T08:06:49.235Z,114.77
2018-03-07T08:09:15.486Z,117.70
2018-03-07T08:11:49.762Z,129.90
2018-03-07T08:14:15.974Z,114.53
2018-03-07T08:16:42.193Z,116.47
2018-03-07T08:19:08.449Z,113.80
2018-03-07T08:21:34.677Z,115.37
2018-03-07T08:24:00.865Z,118.50
2018-03-07T08:26:27.874Z,121.57
2018-03-07T08:28:54.979Z,107.73
2018-03-07T08:31:21.245Z,106.20
2018-03-07T08:33:47.615Z,107.37
2018-03-07T08:36:13.814Z,117.10
2018-03-07T08:38:40.017Z,106.23
2018-03-07T08:41:06.339Z,118.67
2018-03-07T08:43:32.534Z,114.47
2018-03-07T08:45:58.795Z,103.77
2018-03-07T08:48:25.723Z,123.37
2018-03-07T08:50:51.919Z,112.10
2018-03-07T08:53:18.161Z,113.33
2018-03-07T08:55:45.294Z,97.17
2018-03-07T08:58:11.507Z,116.33
2018-03-07T09:00:37.719Z,119.47
2018-03-07T09:03:04.696Z,107.67
2018-03-07T09:05:31.056Z,99.03
2018-03-07T09:07:57.475Z,103.67
2018-03-07T09:10:23.794Z,99.50
2018-03-07T09:12:50.246Z,105.13
2018-03-07T09:15:16.594Z,101.93
2018-03-07T09:17:42.919Z,99.53
2018-03-07T09:20:09.115Z,109.23
2018-03-07T09:22:35.360Z,107.50
2018-03-07T09:25:01.584Z,114.67
2018-03-07T09:27:27.959Z,106.90
2018-03-07T09:29:54.217Z,103.37
2018-03-07T09:32:20.519Z,106.73
2018-03-07T09:34:46.818Z,114.50
2018-03-07T09:37:13.045Z,93.87
2018-03-07T09:39:39.374Z,105.83
2018-03-07T09:42:05.601Z,108.53
2018-03-07T09:44:31.832Z,103.77
2018-03-07T09:46:58.092Z,98.53
2018-03-07T09:49:24.392Z,100.40
2018-03-07T09:51:50.630Z,101.77
2018-03-07T09:54:16.868Z,99.43
2018-03-07T09:56:43.083Z,107.87
2018-03-07T09:59:09.345Z,103.83
2018-03-07T10:01:35.543Z,105.93
2018-03-07T10:04:01.756Z,103.50
2018-03-07T10:06:27.977Z,99.57
2018-03-07T10:08:54.269Z,102.47
2018-03-07T10:11:21.193Z,100.40
2018-03-07T10:13:47.415Z,101.03
2018-03-07T10:16:13.611Z,84.13
2018-03-07T10:18:39.860Z,99.87
2018-03-07T10:21:06.077Z,112.30
2018-03-07T10:23:32.407Z,97.00
2018-03-07T10:25:58.622Z,100.63
2018-03-07T10:28:24.820Z,91.17
2018-03-07T10:30:51.770Z,96.07
2018-03-07T10:33:25.781Z,96.63
2018-03-07T10:35:52.843Z,91.67
2018-03-07T10:38:19.824Z,98.57
2018-03-07T10:40:46.069Z,100.90
2018-03-07T10:43:12.386Z,99.80
2018-03-07T10:45:38.609Z,98.80
2018-03-07T10:48:04.920Z,95.80
2018-03-07T10:50:31.165Z,90.90
2018-03-07T10:52:57.402Z,90.70
2018-03-07T10:55:23.609Z,95.17
2018-03-07T10:57:49.875Z,100.10
2018-03-07T11:00:22.295Z,103.83
2018-03-07T11:02:49.512Z,107.97
2018-03-07T11:05:15.866Z,101.73
2018-03-07T11:07:42.088Z,98.33
2018-03-07T11:10:08.402Z,105.63
2018-03-07T11:12:34.647Z,100.57
2018-03-07T11:15:01.153Z,114.43
2018-03-07T11:17:27.439Z,100.10
2018-03-07T11:19:54.421Z,106.03
2018-03-07T11:22:20.662Z,105.33
2018-03-07T11:24:46.897Z,105.87
2018-03-07T11:27:13.149Z,97.37
2018-03-07T11:29:40.158Z,90.87
2018-03-07T11:32:06.481Z,101.93
2018-03-07T11:34:32.747Z,97.90
2018-03-07T11:36:58.954Z,101.90
2018-03-07T11:39:25.145Z,107.83
2018-03-07T11:41:51.361Z,103.70
2018-03-07T11:44:18.363Z,109.27
2018-03-07T11:46:44.580Z,103.03
2018-03-07T11:49:10.826Z,103.93
2018-03-07T11:51:37.025Z,95.40
2018-03-07T11:54:03.260Z,103.17
2018-03-07T11:56:29.530Z,102.23
2018-03-07T11:58:55.754Z,104.27
2018-03-07T12:01:22.015Z,104.30
2018-03-07T12:03:49.080Z,106.10
2018-03-07T12:06:15.336Z,113.60
2018-03-07T12:08:41.559Z,99.97
2018-03-07T12:11:07.788Z,99.57
2018-03-07T12:13:34.028Z,100.83
2018-03-07T12:16:00.247Z,113.07
2018-03-07T12:18:26.631Z,102.63
2018-03-07T12:20:53.591Z,105.80
2018-03-07T12:23:20.567Z,95.97
2018-03-07T12:25:46.805Z,117.90
2018-03-07T12:28:13.092Z,105.63
2018-03-07T12:30:40.021Z,93.17
2018-03-07T12:33:06.318Z,90.87
2018-03-07T12:35:32.514Z,99.63
2018-03-07T12:37:58.818Z,108.63
2018-03-07T12:40:25.797Z,100.80
2018-03-07T12:42:52.070Z,107.17
2018-03-07T12:45:18.275Z,101.97
2018-03-07T12:47:44.492Z,109.87
2018-03-07T12:50:10.701Z,102.50
2018-03-07T12:52:37.754Z,109.80
2018-03-07T12:55:04.522Z,104.90
2018-03-07T12:57:30.795Z,110.73
2018-03-07T12:59:57.032Z,123.20
2018-03-07T13:02:24.048Z,126.13
2018-03-07T13:04:50.516Z,110.17
2018-03-07T13:07:17.560Z,112.20
2018-03-07T13:09:44.569Z,101.70
2018-03-07T13:12:10.784Z,97.07
2018-03-07T13:14:36.994Z,108.50
2018-03-07T13:17:03.212Z,97.47
2018-03-07T13:19:30.193Z,104.63
2018-03-07T13:21:56.394Z,98.80
2018-03-07T13:24:22.595Z,109.83
2018-03-07T13:26:48.883Z,109.60
2018-03-07T13:29:15.064Z,108.27
2018-03-07T13:31:42.009Z,98.07
2018-03-07T13:34:08.948Z,100.33
2018-03-07T13:36:36.034Z,107.93
2018-03-07T13:39:02.284Z,102.23
2018-03-07T13:41:28.614Z,95.57
2018-03-07T13:43:54.830Z,102.20
2018-03-07T13:46:21.021Z,111.13
2018-03-07T13:48:48.059Z,109.33
2018-03-07T13:51:14.279Z,115.57
2018-03-07T13:53:40.585Z,118.97
2018-03-07T13:56:06.804Z,108.60
2018-03-07T13:58:33.142Z,108.27
2018-03-07T14:00:59.426Z,102.57
2018-03-07T14:03:26.456Z,98.60
2018-03-07T14:05:52.733Z,109.53
2018-03-07T14:08:19.162Z,105.30
2018-03-07T14:10:45.358Z,99.03
2018-03-07T14:13:12.604Z,103.27
2018-03-07T14:15:39.673Z,99.00
2018-03-07T14:18:06.652Z,100.70
2018-03-07T14:20:32.876Z,97.90
2018-03-07T14:22:59.093Z,91.73
2018-03-07T14:25:25.287Z,94.20
2018-03-07T14:27:52.379Z,95.23
2018-03-07T14:30:18.605Z,80.67
2018-03-07T14:32:44.875Z,93.03
2018-03-07T14:35:11.068Z,94.10
2018-03-07T14:37:37.330Z,98.03
2018-03-07T14:40:03.538Z,91.93
2018-03-07T14:42:29.843Z,90.20
2018-03-07T14:44:56.085Z,91.63
2018-03-07T14:47:22.418Z,84.50
2018-03-07T14:49:48.617Z,87.03
2018-03-07T14:52:21.410Z,75.27
2018-03-07T14:54:47.665Z,77.70
2018-03-07T14:57:13.884Z,73.97
2018-03-07T14:59:40.114Z,82.07
2018-03-07T15:02:06.382Z,75.03
2018-03-07T15:04:32.632Z,85.50
2018-03-07T15:06:59.575Z,76.97
2018-03-07T15:09:25.866Z,71.97
2018-03-07T15:11:52.112Z,81.17
2018-03-07T15:14:18.365Z,74.20
2018-03-07T15:16:45.319Z,80.90
2018-03-07T15:19:12.596Z,81.50
2018-03-07T15:21:38.785Z,76.60
2018-03-07T15:24:05.000Z,78.70
2018-03-07T15:26:31.231Z,69.40
2018-03-07T15:28:57.433Z,72.50
2018-03-07T15:31:23.744Z,66.40
2018-03-07T15:33:50.191Z,69.97
2018-03-07T15:36:16.522Z,70.27
2018-03-07T15:38:42.747Z,73.10
2018-03-07T15:41:09.062Z,69.50
2018-03-07T15:43:35.271Z,72.60
2018-03-07T15:46:02.246Z,73.20
2018-03-07T15:48:28.464Z,74.30
2018-03-07T15:50:54.794Z,69.20
2018-03-07T15:53:21.088Z,78.57
2018-03-07T15:55:47.346Z,78.13
2018-03-07T15:58:14.352Z,76.37
2018-03-07T16:00:40.554Z,82.90
2018-03-07T16:03:06.839Z,89.97
2018-03-07T16:05:33.787Z,77.80
2018-03-07T16:08:00.749Z,89.50
2018-03-07T16:10:27.734Z,88.50
2018-03-07T16:12:53.978Z,78.70
2018-03-07T16:15:20.227Z,88.87
2018-03-07T16:17:46.463Z,92.10
2018-03-07T16:20:13.409Z,88.93
2018-03-07T16:22:39.636Z,84.57
2018-03-07T16:25:06.663Z,87.90
2018-03-07T16:27:32.894Z,99.27
2018-03-07T16:29:59.077Z,91.00
2018-03-07T16:32:25.491Z,97.63
2018-03-07T16:34:52.564Z,83.70
2018-03-07T16:37:18.760Z,89.63
2018-03-07T16:39:45.968Z,83.57
2018-03-07T16:42:12.950Z,83.07
2018-03-07T16:44:40.663Z,98.40
2018-03-07T16:47:06.979Z,87.97
2018-03-07T16:49:33.167Z,80.10
2018-03-07T16:51:59.542Z,89.23
2018-03-07T16:54:25.776Z,96.10
2018-03-07T16:56:52.822Z,96.33
2018-03-07T16:59:19.084Z,100.07
2018-03-07T17:01:45.377Z,95.67
2018-03-07T17:04:11.609Z,90.50
2018-03-07T17:06:37.890Z,81.57
2018-03-07T17:09:04.139Z,93.80
2018-03-07T17:11:31.054Z,90.83
2018-03-07T17:13:57.271Z,86.90
2018-03-07T17:16:23.562Z,88.73
2018-03-07T17:18:49.814Z,85.50
2018-03-07T17:21:16.286Z,86.57
2018-03-07T17:23:42.477Z,88.80
2018-03-07T17:26:08.761Z,93.83
2018-03-07T17:28:35.734Z,100.50
2018-03-07T17:31:01.953Z,99.50
2018-03-07T17:33:28.183Z,78.47
2018-03-07T17:35:54.535Z,93.93
2018-03-07T17:38:20.809Z,95.57
2018-03-07T17:40:47.017Z,89.20
2018-03-07T17:43:13.325Z,95.53
2018-03-07T17:45:39.533Z,98.17
2018-03-07T17:48:05.827Z,88.57
2018-03-07T17:50:32.066Z,92.73
2018-03-07T17:52:59.230Z,101.73
2018-03-07T17:55:26.234Z,95.50
2018-03-07T17:57:52.458Z,92.27
2018-03-07T18:00:25.658Z,98.17
2018-03-07T18:02:51.913Z,86.83
2018-03-07T18:05:18.911Z,99.10
2018-03-07T18:07:45.124Z,102.87
2018-03-07T18:10:11.343Z,93.50
2018-03-07T18:12:37.624Z,91.57
2018-03-07T18:15:03.926Z,87.10
2018-03-07T18:17:30.171Z,91.20
2018-03-07T18:19:56.390Z,94.33
2018-03-07T18:22:22.608Z,94.77
2018-03-07T18:24:48.878Z,97.80
2018-03-07T18:27:15.195Z,89.00
2018-03-07T18:29:41.410Z,92.73
2018-03-07T18:32:07.767Z,93.37
2018-03-07T18:34:34.050Z,101.27
2018-03-07T18:37:00.349Z,97.40
2018-03-07T18:39:26.710Z,90.70
2018-03-07T18:41:53.008Z,94.60
2018-03-07T18:44:26.325Z,95.70
2018-03-07T18:46:52.732Z,102.17
2018-03-07T18:49:18.944Z,95.03
2018-03-07T18:51:45.441Z,96.27
2018-03-07T18:54:11.656Z,95.30
2018-03-07T18:56:37.929Z,105.03
2018-03-07T18:59:04.133Z,95.33
2018-03-07T19:01:30.475Z,92.60
2018-03-07T19:03:56.803Z,100.10
2018-03-07T19:06:23.020Z,95.00
2018-03-07T19:08:49.337Z,93.53
2018-03-07T19:11:15.522Z,94.10
2018-03-07T19:13:41.718Z,89.33
2018-03-07T19:16:07.933Z,96.83
2018-03-07T19:18:34.167Z,95.70
2018-03-07T19:21:00.398Z,94.23
2018-03-07T19:23:27.544Z,91.57
2018-03-07T19:25:53.855Z,89.40
2018-03-07T19:28:20.152Z,86.40
2018-03-07T19:30:46.381Z,100.67
2018-03-07T19:33:12.684Z,85.90
2018-03-07T19:35:38.902Z,89.63
2018-03-07T19:38:05.406Z,89.27
2018-03-07T19:40:31.618Z,95.23
2018-03-07T19:42:58.598Z,79.93
2018-03-07T19:45:24.803Z,82.30
2018-03-07T19:47:51.824Z,87.93
2018-03-07T19:50:18.114Z,77.63
2018-03-07T19:52:44.337Z,75.67
2018-03-07T19:55:10.624Z,79.60
2018-03-07T19:57:36.872Z,83.13
2018-03-07T20:00:09.045Z,94.10
2018-03-07T20:02:35.264Z,72.80
2018-03-07T20:05:02.975Z,87.40
2018-03-07T20:07:29.237Z,87.70
2018-03-07T20:09:55.537Z,80.00
2018-03-07T20:12:22.564Z,73.53
2018-03-07T20:14:48.942Z,86.87
2018-03-07T20:17:15.209Z,77.70
2018-03-07T20:19:41.434Z,81.07
2018-03-07T20:22:08.422Z,79.67
2018-03-07T20:24:35.061Z,73.07
2018-03-07T20:27:01.684Z,76.43
2018-03-07T20:29:29.064Z,84.73
2018-03-07T20:31:55.396Z,79.50
2018-03-07T20:34:22.331Z,75.70
2018-03-07T20:36:48.585Z,84.00
2018-03-07T20:39:14.806Z,81.23
2018-03-07T20:41:41.000Z,76.93
2018-03-07T20:44:07.228Z,86.77
2018-03-07T20:46:33.454Z,88.37
2018-03-07T20:48:59.654Z,76.20
2018-03-07T20:54:00.234Z,75.27
2018-03-07T20:56:26.454Z,77.77
2018-03-07T20:58:52.819Z,92.73
2018-03-07T21:01:19.039Z,84.73
2018-03-07T21:03:45.379Z,88.40
2018-03-07T21:06:11.763Z,83.33
2018-03-07T21:08:38.716Z,86.97
2018-03-07T21:11:05.043Z,88.23
2018-03-07T21:13:31.254Z,75.00
2018-03-07T21:15:58.301Z,85.73
2018-03-07T21:18:25.227Z,90.60
2018-03-07T21:20:51.437Z,89.20
2018-03-07T21:23:17.636Z,90.60
2018-03-07T21:25:43.837Z,90.40
2018-03-07T21:28:10.848Z,89.00
2018-03-07T21:30:37.100Z,80.53
2018-03-07T21:33:03.393Z,87.20
2018-03-07T21:35:29.677Z,94.67
2018-03-07T21:37:56.713Z,86.43
2018-03-07T21:40:23.783Z,96.10
2018-03-07T21:42:49.998Z,96.60
2018-03-07T21:45:17.157Z,95.30
2018-03-07T21:47:44.483Z,93.57
2018-03-07T21:50:10.756Z,91.30
2018-03-07T21:52:36.984Z,85.30
2018-03-07T21:55:03.271Z,86.17
2018-03-07T21:57:30.398Z,83.37
2018-03-07T21:59:56.715Z,84.10
2018-03-07T22:02:22.916Z,83.27
2018-03-07T22:04:49.178Z,81.47
2018-03-07T22:07:15.391Z,85.33
2018-03-07T22:09:41.622Z,96.47
2018-03-07T22:12:07.888Z,90.40
2018-03-07T22:14:34.120Z,96.07
2018-03-07T22:17:00.324Z,85.13
2018-03-07T22:19:26.561Z,100.43
2018-03-07T22:21:52.785Z,97.30
2018-03-07T22:24:18.987Z,91.77
2018-03-07T22:26:45.202Z,93.97
2018-03-07T22:29:12.133Z,82.53
2018-03-07T22:31:38.325Z,94.07
2018-03-07T22:34:04.649Z,92.80
2018-03-07T22:36:30.881Z,92.50
2018-03-07T22:38:57.188Z,104.77
2018-03-07T22:41:23.399Z,99.33
2018-03-07T22:43:50.040Z,98.90
2018-03-07T22:46:16.402Z,99.53
2018-03-07T22:48:42.635Z,94.00
2018-03-07T22:51:08.958Z,104.63
2018-03-07T22:53:35.149Z,93.40
2018-03-07T22:56:02.088Z,92.90
2018-03-07T22:58:29.040Z,100.83
2018-03-07T23:00:56.049Z,87.20
2018-03-07T23:03:22.510Z,90.03
2018-03-07T23:05:48.786Z,92.87
2018-03-07T23:08:15.313Z,85.30
2018-03-07T23:10:41.582Z,98.10
2018-03-07T23:13:07.795Z,91.80
2018-03-07T23:15:34.147Z,92.17
2018-03-07T23:18:00.412Z,84.30
2018-03-07T23:20:27.334Z,94.27
2018-03-07T23:22:53.600Z,89.83
2018-03-07T23:25:19.838Z,83.87
2018-03-07T23:27:46.021Z,90.50
2018-03-07T23:30:12.242Z,88.60
2018-03-07T23:32:38.436Z,95.87
2018-03-07T23:35:04.638Z,87.13
2018-03-07T23:37:30.895Z,91.93
2018-03-07T23:39:57.838Z,99.50
2018-03-07T23:42:24.082Z,80.40
2018-03-07T23:44:50.630Z,88.70
2018-03-07T23:47:16.807Z,98.13
2018-03-07T23:49:43.053Z,95.33
2018-03-07T23:52:09.329Z,90.83
2018-03-07T23:54:35.514Z,89.53
2018-03-07T23:57:01.704Z,91.70
2018-03-07T23:59:28.629Z,88.07
